Flood From: 22-02-2018 16:00 Until: 23-02-2018 16:00 warning for: Flood Level: Yellow info button

Although rather usual in this region, locally or potentially dangerous phenomena are expected. (such as local winds, summer thunderstorms, rising streams or high waves) Be aware and pay attention to the latest weather updates, especially if you carry out activities exposed to weather or close to a stream or shoreline. 


Meteo18 Weather Cam more information Meteo18 Weather Cam


Thunder radar more information blitzortung!


Rain radar more information rain snow radar


Visit our other weather sites:

Template documentation
and downloads

And another site



Weather Underground History page Text

Daily Summary for April 30, 2016 Units:  Metric    English   Both
« Previous Day
Next Day »
Daily Weekly Monthly Yearly Custom
  High: Low: Average:
Temperature: -17.8 °C -15.1 °C -14.1 °C
Dew Point: -17.8 °C -15.9 °C -14.7 °C
Humidity: Humidity % 88 % 92 %
Wind Speed: 0 km/h 0 km/h 4 km/h
Wind Gust: 0 km/h - -
Wind:- - NE
Pressure: 0 hPa 34347.6 hPa -
Precipitation: 535.94 mm    
Historical Graphs
 
 
Tabular Data for April 30, 2016
Time Temperature Dew Point Pressure Wind Wind Speed Wind Gust Humidity Rainfall Rate (Hourly)
-17.8 °C -17.8 °C 0 hPa Calm     Humidity % 0 mm
00:02 -14.3 °C -15.3 °C 34405.1 hPa Calm     89 % 0 mm
00:12 -14.2 °C -15.2 °C 34405.1 hPa Calm     89 % 0 mm
00:17 -14.2 °C -15.2 °C 34405.1 hPa Calm     88 % 0 mm
00:22 -14.2 °C -15.2 °C 34405.1 hPa Calm     88 % 0 mm
00:32 -14.2 °C -15.2 °C 34405.1 hPa Calm     88 % 0 mm
00:37 -14.2 °C -15.2 °C 34405.1 hPa Calm     88 % 0 mm
00:42 -14.2 °C -15.2 °C 34405.1 hPa Calm     89 % 0 mm
00:52 -14.2 °C -15 °C 34405.1 hPa Calm     90 % 0 mm
00:57 -14.1 °C -14.9 °C 34405.1 hPa Calm     91 % 0 mm
01:02 -14.1 °C -14.9 °C 34405.1 hPa Calm     91 % 0 mm
01:12 -14.1 °C -14.8 °C 34395 hPa Calm     92 % 0 mm
01:17 -14.1 °C -14.7 °C 34395 hPa Calm     92 % 0 mm
01:22 -14.1 °C -14.8 °C 34395 hPa Calm     92 % 0 mm
01:27 -14.1 °C -14.8 °C 34395 hPa Calm     92 % 0 mm
01:32 -14.1 °C -14.8 °C 34395 hPa Calm     92 % 0 mm
01:37 -14.2 °C -14.8 °C 34395 hPa Calm     92 % 0 mm
01:42 -14.1 °C -14.8 °C 34384.8 hPa Calm     92 % 0 mm
01:47 -14.2 °C -14.8 °C 34384.8 hPa Calm     92 % 0 mm
01:52 -14.2 °C -14.8 °C 34384.8 hPa Calm     92 % 0 mm
01:57 -14.2 °C -14.8 °C 34384.8 hPa Calm     92 % 0 mm
02:02 -14.2 °C -14.8 °C 34384.8 hPa Calm     92 % 0 mm
02:12 -14.2 °C -14.9 °C 34384.8 hPa Calm     92 % 0 mm
02:17 -14.2 °C -14.9 °C 34384.8 hPa Calm     92 % 0 mm
02:22 -14.2 °C -14.9 °C 34384.8 hPa Calm     92 % 0 mm
02:32 -14.2 °C -14.9 °C 34384.8 hPa Calm     92 % 0 mm
02:37 -14.3 °C -14.9 °C 34384.8 hPa Calm     92 % 0 mm
02:42 -14.3 °C -15 °C 34384.8 hPa Calm     92 % 0 mm
02:52 -14.4 °C -15.1 °C 34384.8 hPa Calm     92 % 0 mm
02:57 -14.5 °C -15.2 °C 34384.8 hPa Calm     92 % 0 mm
03:02 -14.4 °C -15.1 °C 34384.8 hPa Calm     92 % 0 mm
03:12 -14.4 °C -15.1 °C 34384.8 hPa Calm     92 % 0 mm
03:17 -14.4 °C -15.1 °C 34371.3 hPa Calm     92 % 0 mm
03:22 -14.6 °C -15.2 °C 34371.3 hPa Calm     92 % 0 mm
03:27 -14.6 °C -15.2 °C 34384.8 hPa Calm     92 % 0 mm
03:32 -14.6 °C -15.3 °C 34371.3 hPa Calm     92 % 0 mm
03:37 -14.6 °C -15.3 °C 34371.3 hPa Calm     92 % 0 mm
03:42 -14.7 °C -15.3 °C 34371.3 hPa Calm     92 % 0 mm
03:47 -14.7 °C -15.2 °C 34371.3 hPa Calm     93 % 0 mm
03:52 -14.7 °C -15.2 °C 34384.8 hPa Calm     93 % 0 mm
04:02 -14.7 °C -15.2 °C 34384.8 hPa Calm     93 % 0 mm
04:12 -14.6 °C -15.1 °C 34371.3 hPa Calm     94 % 0 mm
04:17 -14.6 °C -15.1 °C 34384.8 hPa Calm     93 % 0 mm
04:22 -14.5 °C -15 °C 34384.8 hPa Calm     94 % 0 mm
04:27 -14.5 °C -15.1 °C 34384.8 hPa Calm     93 % 0 mm
04:32 -14.4 °C -15 °C 34371.3 hPa Calm     93 % 0 mm
04:37 -14.5 °C -15.1 °C 34384.8 hPa Calm     93 % 0 mm
04:42 -14.5 °C -15.1 °C 34384.8 hPa Calm     93 % 0 mm
04:47 -14.5 °C -15.1 °C 34384.8 hPa Calm     93 % 0 mm
04:52 -14.4 °C -15 °C 34384.8 hPa Calm     93 % 0 mm
04:57 -14.4 °C -15 °C 34371.3 hPa Calm     93 % 0 mm
05:02 -14.4 °C -14.9 °C 34384.8 hPa Calm     93 % 0 mm
05:07 -14.4 °C -14.9 °C 34384.8 hPa Calm     93 % 0 mm
05:12 -14.4 °C -14.9 °C 34384.8 hPa Calm     93 % 0 mm
05:17 -14.4 °C -14.9 °C 34384.8 hPa Calm     93 % 0 mm
05:22 -14.4 °C -14.9 °C 34371.3 hPa Calm     93 % 0 mm
05:32 -14.4 °C -14.9 °C 34371.3 hPa Calm     93 % 0 mm
05:52 -14.5 °C -15.1 °C 34361.1 hPa Calm     93 % 0 mm
05:57 -14.5 °C -15.1 °C 34371.3 hPa Calm     93 % 0 mm
06:02 -14.5 °C -15.1 °C 34361.1 hPa Calm     93 % 0 mm
06:07 -14.6 °C -15.1 °C 34361.1 hPa Calm     93 % 0 mm
06:12 -14.6 °C -15.1 °C 34361.1 hPa Calm     93 % 0 mm
06:22 -14.6 °C -15.1 °C 34347.6 hPa Calm     93 % 0 mm
06:37 -14.7 °C -15.3 °C 34347.6 hPa Calm     93 % 0 mm
06:42 -14.8 °C -15.3 °C 34347.6 hPa Calm     94 % 0 mm
06:52 -14.8 °C -15.3 °C 34347.6 hPa Calm     94 % 0 mm
06:57 -14.8 °C -15.3 °C 34347.6 hPa Calm     94 % 0 mm
07:02 -14.8 °C -15.2 °C 34347.6 hPa Calm     95 % 0 mm
07:12 -14.8 °C -15.3 °C 34347.6 hPa Calm     94 % 0 mm
07:17 -14.8 °C -15.3 °C 34347.6 hPa Calm     94 % 0 mm
07:22 -14.8 °C -15.2 °C 34347.6 hPa Calm     95 % 0 mm
07:32 -14.8 °C -15.2 °C 34347.6 hPa Calm     95 % 0 mm
07:37 -14.8 °C -15.2 °C 34347.6 hPa Calm     95 % 0 mm
07:52 -14.7 °C -15.1 °C 34361.1 hPa Calm     95 % 0 mm
07:57 -14.7 °C -15.1 °C 34361.1 hPa Calm     95 % 0 mm
08:02 -14.7 °C -15.1 °C 34361.1 hPa Calm     95 % 0 mm
08:12 -14.6 °C -14.9 °C 34361.1 hPa Calm     95 % 0 mm
08:22 -14.4 °C -14.8 °C 34361.1 hPa Calm     95 % 0 mm
08:32 -14.3 °C -14.7 °C 34361.1 hPa Calm     95 % 0 mm
08:42 -14.2 °C -14.6 °C 34361.1 hPa Calm     95 % 0 mm
08:47 -14.1 °C -14.5 °C 34361.1 hPa Calm     95 % 0 mm
08:52 -14.1 °C -14.4 °C 34361.1 hPa Calm     95 % 0 mm
09:02 -14 °C -14.5 °C 34371.3 hPa Calm     94 % 0 mm
09:12 -13.8 °C -14.3 °C 34371.3 hPa Calm     94 % 0 mm
09:22 -13.7 °C -14.2 °C 34371.3 hPa Calm     94 % 0 mm
09:32 -13.7 °C -14.3 °C 34371.3 hPa Calm     93 % 0 mm
09:37 -13.6 °C -14.2 °C 34371.3 hPa Calm   2.6 km/h 93 % 0 mm
09:42 -13.6 °C -14.2 °C 34384.8 hPa Calm   2.6 km/h 93 % 0 mm
09:47 -13.7 °C -14.3 °C 34384.8 hPa Calm     93 % 0 mm
09:52 -13.6 °C -14.2 °C 34384.8 hPa Calm     93 % 0 mm
10:02 -13.6 °C -14.2 °C 34384.8 hPa Calm     93 % 12.7 mm
10:12 -13.6 °C -14.1 °C 34384.8 hPa Calm     94 % 25.4 mm
10:17 -13.6 °C -14.1 °C 34384.8 hPa NE 2.6 km/h 5.1 km/h 94 % 38.1 mm
10:22 -13.5 °C -14 °C 34384.8 hPa NE 2.6 km/h 5.1 km/h 94 % 38.1 mm
10:32 -13.4 °C -13.9 °C 34384.8 hPa Calm   5.1 km/h 95 % 38.1 mm
10:37 -13.4 °C -13.8 °C 34384.8 hPa NE 2.6 km/h 5.1 km/h 95 % 45.72 mm
10:42 -13.4 °C -13.8 °C 34384.8 hPa NE 2.6 km/h 5.1 km/h 95 % 45.72 mm
10:47 -13.3 °C -13.7 °C 34384.8 hPa Calm   5.1 km/h 95 % 45.72 mm
10:52 -13.2 °C -13.7 °C 34384.8 hPa Calm   5.1 km/h 95 % 45.72 mm
10:57 -13.2 °C -13.7 °C 34395 hPa Calm   5.1 km/h 95 % 38.1 mm
11:02 -13.2 °C -13.7 °C 34395 hPa Calm   5.1 km/h 95 % 38.1 mm
11:12 -13.2 °C -13.6 °C 34405.1 hPa Calm   2.6 km/h 95 % 33.02 mm
11:17 -13.1 °C -13.6 °C 34405.1 hPa Calm   2.6 km/h 95 % 33.02 mm
11:22 -13.1 °C -13.6 °C 34405.1 hPa Calm   2.6 km/h 94 % 33.02 mm
11:32 -13.1 °C -13.6 °C 34405.1 hPa Calm   2.6 km/h 95 % 38.1 mm
11:37 -13.1 °C -13.6 °C 34405.1 hPa Calm   2.6 km/h 94 % 38.1 mm
11:42 -13.1 °C -13.6 °C 34405.1 hPa Calm   2.6 km/h 94 % 38.1 mm
11:47 -13.2 °C -13.7 °C 34405.1 hPa Calm     94 % 38.1 mm
11:52 -13.1 °C -13.6 °C 34405.1 hPa Calm   2.6 km/h 95 % 38.1 mm
11:57 -13.1 °C -13.6 °C 34405.1 hPa Calm   2.6 km/h 95 % 50.8 mm
12:07 -13.1 °C -13.6 °C 34405.1 hPa Calm   2.6 km/h 95 % 58.42 mm
12:12 -13.1 °C -13.5 °C 34405.1 hPa Calm   2.6 km/h 95 % 58.42 mm
12:17 -13.2 °C -13.7 °C 34405.1 hPa Calm   2.6 km/h 94 % 58.42 mm
12:22 -13.3 °C -13.9 °C 34405.1 hPa Calm   2.6 km/h 93 % 71.12 mm
12:27 -13.4 °C -14 °C 34405.1 hPa Calm   2.6 km/h 93 % 71.12 mm
12:42 -13.3 °C -13.8 °C 34405.1 hPa Calm   2.6 km/h 94 % 83.82 mm
12:52 -13.3 °C -13.9 °C 34405.1 hPa Calm     93 % 83.82 mm
13:02 -13.2 °C -13.7 °C 34405.1 hPa Calm     94 % 83.82 mm
13:07 -13.1 °C -13.6 °C 34405.1 hPa Calm     94 % 76.2 mm
13:12 -13 °C -13.5 °C 34405.1 hPa Calm     94 % 76.2 mm
13:17 -12.9 °C -13.4 °C 34405.1 hPa Calm     94 % 63.5 mm
13:22 -12.9 °C -13.5 °C 34405.1 hPa Calm     93 % 63.5 mm
13:27 -12.8 °C -13.4 °C 34405.1 hPa Calm     93 % 50.8 mm
13:42 -12.8 °C -13.5 °C 34405.1 hPa Calm     92 % 38.1 mm
13:52 -12.8 °C -13.4 °C 34405.1 hPa Calm     92 % 38.1 mm
13:57 -12.7 °C -13.4 °C 34405.1 hPa Calm     92 % 38.1 mm
14:02 -12.7 °C -13.4 °C 34405.1 hPa Calm     92 % 38.1 mm
14:12 -12.7 °C -13.5 °C 34405.1 hPa Calm     91 % 38.1 mm
14:22 -12.7 °C -13.6 °C 34405.1 hPa Calm     90 % 38.1 mm
14:27 -12.7 °C -13.6 °C 34405.1 hPa Calm     90 % 38.1 mm
14:32 -12.7 °C -13.7 °C 34405.1 hPa Calm     89 % 38.1 mm
14:37 -12.8 °C -13.7 °C 34405.1 hPa Calm     90 % 45.72 mm
14:42 -12.8 °C -13.7 °C 34418.7 hPa Calm     90 % 45.72 mm
14:47 -12.9 °C -13.8 °C 34418.7 hPa Calm     90 % 38.1 mm
14:52 -12.9 °C -13.7 °C 34418.7 hPa Calm     91 % 38.1 mm
14:57 -12.9 °C -13.6 °C 34418.7 hPa Calm     92 % 38.1 mm
15:02 -12.9 °C -13.6 °C 34418.7 hPa Calm     92 % 38.1 mm
15:12 -13.2 °C -13.9 °C 34418.7 hPa Calm     91 % 45.72 mm
15:17 -13.3 °C -13.9 °C 34418.7 hPa Calm   2.6 km/h 92 % 50.8 mm
15:22 -13.3 °C -14 °C 34428.8 hPa Calm   2.6 km/h 92 % 50.8 mm
15:27 -13.4 °C -14 °C 34428.8 hPa Calm   2.6 km/h 93 % 50.8 mm
15:32 -13.4 °C -14.1 °C 34428.8 hPa Calm   2.6 km/h 93 % 50.8 mm
15:37 -13.5 °C -14.1 °C 34428.8 hPa Calm   2.6 km/h 93 % 76.2 mm
15:42 -13.6 °C -14.2 °C 34428.8 hPa Calm   2.6 km/h 92 % 76.2 mm
15:47 -13.6 °C -14.2 °C 34428.8 hPa Calm   2.6 km/h 93 % 83.82 mm
15:52 -13.6 °C -14.2 °C 34428.8 hPa Calm   2.6 km/h 93 % 83.82 mm
15:57 -13.6 °C -14.2 °C 34442.4 hPa Calm   7.7 km/h 93 % 96.52 mm
16:02 -13.6 °C -14.1 °C 34442.4 hPa Calm   7.7 km/h 94 % 96.52 mm
16:07 -13.6 °C -14.1 °C 34442.4 hPa NE 10.3 km/h 10.3 km/h 94 % 104.14 mm
16:12 -13.7 °C -14.2 °C 34442.4 hPa NE 7.7 km/h 7.7 km/h 94 % 104.14 mm
16:17 -13.7 °C -14.2 °C 34442.4 hPa NE 2.6 km/h 15.6 km/h 94 % 109.22 mm
16:22 -13.8 °C -14.4 °C 34442.4 hPa NE 7.7 km/h 15.6 km/h 93 % 109.22 mm
16:27 -13.8 °C -14.3 °C 34442.4 hPa East 2.6 km/h 12.9 km/h 94 % 109.22 mm
16:32 -13.7 °C -14.2 °C 34452.6 hPa Calm   12.9 km/h 94 % 109.22 mm
16:42 -13.8 °C -14.3 °C 34452.6 hPa NNE 10.3 km/h 12.9 km/h 94 % 91.44 mm
16:47 -13.8 °C -14.3 °C 34452.6 hPa NE 5.1 km/h 12.9 km/h 94 % 83.82 mm
16:52 -13.9 °C -14.6 °C 34452.6 hPa NE 7.7 km/h 12.9 km/h 93 % 83.82 mm
16:57 -14.1 °C -14.7 °C 34452.6 hPa Calm   15.6 km/h 93 % 63.5 mm
17:07 -14.1 °C -14.7 °C 34452.6 hPa NE 10.3 km/h 15.6 km/h 93 % 58.42 mm
17:12 -14.1 °C -14.7 °C 34462.7 hPa Calm   15.6 km/h 93 % 58.42 mm
17:17 -14.1 °C -14.6 °C 34462.7 hPa NE 12.9 km/h 15.6 km/h 94 % 50.8 mm
17:22 -14.1 °C -14.6 °C 34462.7 hPa NE 2.6 km/h 15.6 km/h 94 % 50.8 mm
17:27 -14.1 °C -14.6 °C 34462.7 hPa East 2.6 km/h 15.6 km/h 94 % 45.72 mm
17:32 -14.1 °C -14.6 °C 34462.7 hPa Calm   18.2 km/h 94 % 45.72 mm
17:37 -14.1 °C -14.6 °C 34462.7 hPa NE 5.1 km/h 18.2 km/h 94 % 38.1 mm
17:42 -14 °C -14.5 °C 34462.7 hPa NNE 7.7 km/h 18.2 km/h 94 % 38.1 mm
17:47 -13.9 °C -14.4 °C 34462.7 hPa NE 5.1 km/h 12.9 km/h 94 % 33.02 mm
17:52 -13.9 °C -14.4 °C 34462.7 hPa East 7.7 km/h 18.2 km/h 94 % 33.02 mm
17:57 -13.8 °C -14.3 °C 34462.7 hPa NE 10.3 km/h 23.3 km/h 94 % 25.4 mm
18:02 -13.9 °C -14.5 °C 34462.7 hPa ENE 10.3 km/h 23.3 km/h 93 % 25.4 mm
18:12 -13.9 °C -14.6 °C 34476.3 hPa NE 7.7 km/h 31.1 km/h 92 % 25.4 mm
18:17 -13.9 °C -14.6 °C 34486.4 hPa NE 20.8 km/h 33.6 km/h 93 % 20.32 mm
18:22 -14 °C -14.7 °C 34486.4 hPa ENE 10.3 km/h 33.6 km/h 92 % 12.7 mm
18:32 -14.1 °C -14.8 °C 34496.6 hPa East 10.3 km/h 36.2 km/h 92 % 12.7 mm
18:42 -14.2 °C -14.9 °C 34496.6 hPa NNE 20.8 km/h 41.4 km/h 92 % 12.7 mm
18:52 -14.3 °C -15.1 °C 34496.6 hPa ENE 33.6 km/h 41.4 km/h 91 % 12.7 mm
18:57 -14.4 °C -15.1 °C 34510.1 hPa NE 18.2 km/h 41.4 km/h 92 % 12.7 mm
19:02 -14.4 °C -15.1 °C 34510.1 hPa East 12.9 km/h 41.4 km/h 92 % 12.7 mm
19:12 -14.4 °C -14.9 °C 34510.1 hPa NNE 18.2 km/h 41.4 km/h 93 % 12.7 mm
19:17 -14.6 °C -15.2 °C 34520.3 hPa East 23.3 km/h 33.6 km/h 92 % 25.4 mm
19:27 -14.7 °C -15.3 °C 34533.8 hPa NE 23.3 km/h 44.1 km/h 92 % 33.02 mm
19:32 -14.7 °C -15.4 °C 34533.8 hPa SSW 12.9 km/h 44.1 km/h 92 % 33.02 mm
19:42 -14.7 °C -15.3 °C 34533.8 hPa NE 10.3 km/h 41.4 km/h 93 % 33.02 mm
19:47 -14.7 °C -15.2 °C 34533.8 hPa ENE 5.1 km/h 38.8 km/h 93 % 33.02 mm
19:52 -14.7 °C -15.2 °C 34533.8 hPa NNE 20.8 km/h 38.8 km/h 94 % 33.02 mm
19:57 -14.7 °C -15.2 °C 34533.8 hPa NE 10.3 km/h 31.1 km/h 93 % 33.02 mm
20:02 -14.7 °C -15.2 °C 34544 hPa ENE 12.9 km/h 31.1 km/h 93 % 33.02 mm
20:12 -14.8 °C -15.4 °C 34544 hPa NE 38.8 km/h 38.8 km/h 92 % 25.4 mm
20:17 -14.8 °C -15.5 °C 34544 hPa NNE 25.9 km/h 41.4 km/h 92 % 20.32 mm
20:22 -14.8 °C -15.5 °C 34544 hPa ENE 20.8 km/h 51.8 km/h 92 % 20.32 mm
20:32 -14.9 °C -15.6 °C 34554.1 hPa East 15.6 km/h 51.8 km/h 92 % 20.32 mm
20:37 -14.9 °C -15.6 °C 34554.1 hPa NE 25.9 km/h 46.7 km/h 92 % 20.32 mm
20:42 -14.9 °C -15.6 °C 34554.1 hPa NE 31.1 km/h 46.7 km/h 92 % 20.32 mm
20:47 -14.9 °C -15.6 °C 34567.7 hPa NE 20.8 km/h 46.7 km/h 92 % 20.32 mm
20:52 -14.9 °C -15.6 °C 34567.7 hPa NE 23.3 km/h 46.7 km/h 92 % 20.32 mm
20:57 -15 °C -15.7 °C 34567.7 hPa NE 31.1 km/h 46.7 km/h 92 % 20.32 mm
21:02 -15.1 °C -15.7 °C 34577.8 hPa ENE 20.8 km/h 46.7 km/h 92 % 20.32 mm
21:07 -15.1 °C -15.8 °C 34577.8 hPa ENE 20.8 km/h 41.4 km/h 91 % 12.7 mm
21:12 -15.1 °C -15.8 °C 34577.8 hPa NNE 23.3 km/h 41.4 km/h 91 % 12.7 mm
21:22 -15 °C -15.7 °C 34591.4 hPa NE 7.7 km/h 38.8 km/h 91 % 12.7 mm
21:32 -15 °C -15.7 °C 34591.4 hPa NNE 15.6 km/h 33.6 km/h 91 % 12.7 mm
21:37 -14.9 °C -15.7 °C 34591.4 hPa NE 7.7 km/h 28.5 km/h 91 % 12.7 mm
21:47 -14.9 °C -15.7 °C 34591.4 hPa East 7.7 km/h 28.5 km/h 91 % 7.62 mm
21:57 -14.9 °C -15.7 °C 34601.5 hPa ENE 5.1 km/h 28.5 km/h 91 % 0 mm
22:02 -14.9 °C -15.7 °C 34611.7 hPa NE 5.1 km/h 28.5 km/h 91 % 0 mm
22:07 -15 °C -15.7 °C 34611.7 hPa NE 2.6 km/h 20.8 km/h 92 % 0 mm
22:12 -15.1 °C -15.8 °C 34611.7 hPa NE 7.7 km/h 18.2 km/h 91 % 0 mm
22:17 -15 °C -15.7 °C 34611.7 hPa NE 5.1 km/h 15.6 km/h 91 % 0 mm
22:22 -15 °C -15.7 °C 34611.7 hPa ENE 2.6 km/h 18.2 km/h 91 % 0 mm
22:27 -14.9 °C -15.7 °C 34611.7 hPa NE 7.7 km/h 18.2 km/h 91 % 0 mm
22:32 -14.9 °C -15.7 °C 34625.2 hPa NE 5.1 km/h 18.2 km/h 91 % 0 mm
22:37 -14.9 °C -15.7 °C 34625.2 hPa ENE 5.1 km/h 15.6 km/h 91 % 0 mm
22:42 -15 °C -15.7 °C 34625.2 hPa NE 7.7 km/h 15.6 km/h 91 % 0 mm
22:47 -14.9 °C -15.7 °C 34625.2 hPa NE 10.3 km/h 12.9 km/h 91 % 0 mm
22:52 -14.9 °C -15.7 °C 34625.2 hPa ENE 5.1 km/h 12.9 km/h 91 % 0 mm
22:57 -14.9 °C -15.7 °C 34635.4 hPa ENE 2.6 km/h 15.6 km/h 91 % 0 mm
23:02 -14.9 °C -15.7 °C 34635.4 hPa East 2.6 km/h 15.6 km/h 91 % 0 mm
23:07 -15 °C -15.7 °C 34625.2 hPa NE 2.6 km/h 12.9 km/h 92 % 0 mm
23:12 -14.9 °C -15.6 °C 34635.4 hPa East 12.9 km/h 12.9 km/h 92 % 0 mm
23:17 -14.9 °C -15.6 °C 34635.4 hPa NE 5.1 km/h 23.3 km/h 91 % 0 mm
23:22 -14.8 °C -15.7 °C 34635.4 hPa NE 10.3 km/h 23.3 km/h 90 % 0 mm
23:27 -14.8 °C -15.7 °C 34635.4 hPa NNE 15.6 km/h 25.9 km/h 90 % 0 mm
23:32 -14.8 °C -15.7 °C 34635.4 hPa NE 5.1 km/h 25.9 km/h 90 % 0 mm
23:37 -14.8 °C -15.7 °C 34635.4 hPa NE 5.1 km/h 25.9 km/h 90 % 0 mm
23:42 -14.9 °C -15.7 °C 34635.4 hPa ENE 5.1 km/h 20.8 km/h 90 % 0 mm
23:52 -15.1 °C -15.9 °C 34635.4 hPa NE 10.3 km/h 18.2 km/h 90 % 0 mm
23:57 -15.1 °C -15.9 °C 34645.6 hPa ENE 5.1 km/h 18.2 km/h 90 % 0 mm
Meteo18
Compliments of Weather Underground - 4 mb

Script developed by  Jim McMurry - jmcmurry@mwt.net Adapted for the template by  Wim van der Kuil - Leuven-Template.eu

You find our weather info also at:

European Weather Network

Weather Underground

Equipment we use:

Weather-station
Davis Vue

Weather-program
Meteobridge

Weather-server
Raspberry PI 2 B+

Provider
1 and 1

Davis Vue

Meteobridge

Raspberry PI 2 B+

1 and 1